Rutland, Pennsylvania
Current Conditions -  °F | °C
As of 12:35 PM on Saturday 25 Oct 2014 (Local Time) from KN38 Reporting Station
Scattered Clouds Scattered Clouds  
Wind Chill: 59°   Ceiling: Unl
Heat Index: 59°   Visibility: 10mi
Dew Point: 45°   Wind: 15mph
Humidity: 59%   Direction: 260°W
Pressure: 29.8"   Gusts: 28mph
Location:  41.8345°N, 77.0538°W
Report Text: KN38 251635Z AUTO 26013G24KT 10SM SCT034 15/07 A2980 RMK AO2
Loading
Personal Weather Stations






























Interactive Weather Map
Tropical Storm Tracking
New forecast layout! Learn more

10-Day Weather Forecast

Advertisements
Track Severe Weather on mobile